createdAt,value
2018-12-17T00:01:20.990Z,29.10
2018-12-17T00:03:48.614Z,32.53
2018-12-17T00:06:16.209Z,32.17
2018-12-17T00:08:43.870Z,30.33
2018-12-17T00:11:11.680Z,31.93
2018-12-17T00:13:39.193Z,33.23
2018-12-17T00:16:06.994Z,31.50
2018-12-17T00:18:34.525Z,34.87
2018-12-17T00:21:02.159Z,31.47
2018-12-17T00:23:29.821Z,34.80
2018-12-17T00:25:57.494Z,27.63
2018-12-17T00:28:25.214Z,26.60
2018-12-17T00:30:52.718Z,27.10
2018-12-17T00:33:20.271Z,29.53
2018-12-17T00:35:48.088Z,28.17
2018-12-17T00:38:15.624Z,27.40
2018-12-17T00:40:43.356Z,29.27
2018-12-17T00:43:10.889Z,25.33
2018-12-17T00:45:38.464Z,23.53
2018-12-17T00:48:05.989Z,21.00
2018-12-17T00:50:33.638Z,21.13
2018-12-17T00:53:01.169Z,20.47
2018-12-17T00:55:28.712Z,21.20
2018-12-17T00:57:56.426Z,25.80
2018-12-17T01:00:23.965Z,29.50
2018-12-17T01:02:51.599Z,23.83
2018-12-17T01:05:19.265Z,22.43
2018-12-17T01:07:46.840Z,22.40
2018-12-17T01:10:14.388Z,23.63
2018-12-17T01:12:41.944Z,21.90
2018-12-17T01:15:09.660Z,21.77
2018-12-17T01:17:37.455Z,21.80
2018-12-17T01:20:05.973Z,19.17
2018-12-17T01:22:33.616Z,24.67
2018-12-17T01:25:01.229Z,25.93
2018-12-17T01:27:28.939Z,24.27
2018-12-17T01:29:56.843Z,23.60
2018-12-17T01:32:24.504Z,29.50
2018-12-17T01:34:52.026Z,26.50
2018-12-17T01:37:19.651Z,26.20
2018-12-17T01:39:47.188Z,23.07
2018-12-17T01:42:14.716Z,23.27
2018-12-17T01:44:42.550Z,23.23
2018-12-17T01:47:10.088Z,21.30
2018-12-17T01:49:37.843Z,23.67
2018-12-17T01:52:05.396Z,22.40
2018-12-17T01:54:32.965Z,24.67
2018-12-17T01:57:00.570Z,26.97
2018-12-17T01:59:28.119Z,30.23
2018-12-17T02:01:55.831Z,26.23
2018-12-17T02:04:23.393Z,33.10
2018-12-17T02:06:50.938Z,30.10
2018-12-17T02:09:18.461Z,25.00
2018-12-17T02:11:46.113Z,23.70
2018-12-17T02:14:13.777Z,26.77
2018-12-17T02:16:41.505Z,21.93
2018-12-17T02:19:09.230Z,23.27
2018-12-17T02:21:36.738Z,20.83
2018-12-17T02:24:04.686Z,26.73
2018-12-17T02:26:32.504Z,25.70
2018-12-17T02:29:00.013Z,20.63
2018-12-17T02:31:27.599Z,22.67
2018-12-17T02:33:55.129Z,19.63
2018-12-17T02:36:22.809Z,18.77
2018-12-17T02:38:50.328Z,19.77
2018-12-17T02:41:18.398Z,20.17
2018-12-17T02:43:46.073Z,16.97
2018-12-17T02:46:14.030Z,18.40
2018-12-17T02:48:41.591Z,20.63
2018-12-17T02:51:09.274Z,16.27
2018-12-17T02:53:36.922Z,14.80
2018-12-17T02:56:04.789Z,21.77
2018-12-17T02:58:32.370Z,20.27
2018-12-17T03:01:00.109Z,17.33
2018-12-17T03:03:27.975Z,20.60
2018-12-17T03:05:55.943Z,18.20
2018-12-17T03:08:23.463Z,20.10
2018-12-17T03:10:51.060Z,19.43
2018-12-17T03:13:18.589Z,20.77
2018-12-17T03:15:46.155Z,14.93
2018-12-17T03:18:13.692Z,18.80
2018-12-17T03:20:41.266Z,17.03
2018-12-17T03:23:08.969Z,17.03
2018-12-17T03:25:36.881Z,20.07
2018-12-17T03:28:04.425Z,16.83
2018-12-17T03:30:32.362Z,18.43
2018-12-17T03:33:00.222Z,20.50
2018-12-17T03:35:27.819Z,19.47
2018-12-17T03:37:55.353Z,18.33
2018-12-17T03:40:22.984Z,19.07
2018-12-17T03:42:50.771Z,18.30
2018-12-17T03:45:18.309Z,16.17
2018-12-17T03:47:45.812Z,16.57
2018-12-17T03:50:13.441Z,16.10
2018-12-17T03:52:40.996Z,17.63
2018-12-17T03:55:08.683Z,17.07
2018-12-17T03:57:36.489Z,18.73
2018-12-17T04:00:06.033Z,17.00
2018-12-17T04:02:33.780Z,16.23
2018-12-17T04:05:01.715Z,15.97
2018-12-17T04:07:29.294Z,15.50
2018-12-17T04:09:56.930Z,14.90
2018-12-17T04:12:24.646Z,12.47
2018-12-17T04:14:52.167Z,14.30
2018-12-17T04:17:19.719Z,16.27
2018-12-17T04:19:47.331Z,16.53
2018-12-17T04:22:14.934Z,13.43
2018-12-17T04:24:42.539Z,18.43
2018-12-17T04:27:10.065Z,16.93
2018-12-17T04:29:37.684Z,15.43
2018-12-17T04:32:05.249Z,17.77
2018-12-17T04:34:32.910Z,15.57
2018-12-17T04:37:00.454Z,19.77
2018-12-17T04:39:28.178Z,13.53
2018-12-17T04:41:55.970Z,16.47
2018-12-17T04:44:23.848Z,15.20
2018-12-17T04:46:51.466Z,17.57
2018-12-17T04:49:19.022Z,15.07
2018-12-17T04:51:46.689Z,18.27
2018-12-17T04:54:14.336Z,18.53
2018-12-17T04:56:41.854Z,18.83
2018-12-17T04:59:14.518Z,19.27
2018-12-17T05:01:39.038Z,16.43
2018-12-17T05:04:06.600Z,23.73
2018-12-17T05:06:34.193Z,18.57
2018-12-17T05:09:01.746Z,17.10
2018-12-17T05:11:29.695Z,17.47
2018-12-17T05:13:57.484Z,15.57
2018-12-17T05:16:25.226Z,20.00
2018-12-17T05:18:52.912Z,14.10
2018-12-17T05:21:20.754Z,15.07
2018-12-17T05:23:48.431Z,17.13
2018-12-17T05:26:16.294Z,14.53
2018-12-17T05:28:43.950Z,12.00
2018-12-17T05:31:11.723Z,14.00
2018-12-17T05:33:39.358Z,16.87
2018-12-17T05:36:07.001Z,18.13
2018-12-17T05:38:34.595Z,14.70
2018-12-17T05:41:02.415Z,13.90
2018-12-17T05:43:29.948Z,13.97
2018-12-17T05:45:57.627Z,16.67
2018-12-17T05:48:25.294Z,13.83
2018-12-17T05:50:52.851Z,15.20
2018-12-17T05:53:20.546Z,13.80
2018-12-17T05:55:48.255Z,11.57
2018-12-17T05:58:16.039Z,9.17
2018-12-17T06:00:43.621Z,10.47
2018-12-17T06:03:11.169Z,14.23
2018-12-17T06:05:38.685Z,14.80
2018-12-17T06:08:06.231Z,12.97
2018-12-17T06:10:34.173Z,13.40
2018-12-17T06:13:01.800Z,11.63
2018-12-17T06:15:29.594Z,11.70
2018-12-17T06:17:57.294Z,11.47
2018-12-17T06:20:25.094Z,12.97
2018-12-17T06:22:52.663Z,12.10
2018-12-17T06:25:20.285Z,9.47
2018-12-17T06:27:48.035Z,17.17
2018-12-17T06:30:15.589Z,12.80
2018-12-17T06:32:43.122Z,10.77
2018-12-17T06:35:10.951Z,11.90
2018-12-17T06:37:38.769Z,16.10
2018-12-17T06:40:10.150Z,12.90
2018-12-17T06:42:36.605Z,16.23
2018-12-17T06:45:05.549Z,14.23
2018-12-17T06:47:33.126Z,14.63
2018-12-17T06:50:00.928Z,16.17
2018-12-17T06:52:28.701Z,19.57
2018-12-17T06:54:56.357Z,18.93
2018-12-17T06:57:24.369Z,19.17
2018-12-17T06:59:52.084Z,20.40
2018-12-17T07:02:19.740Z,19.23
2018-12-17T07:04:47.273Z,17.23
2018-12-17T07:07:14.967Z,16.87
2018-12-17T07:09:42.518Z,22.37
2018-12-17T07:12:10.304Z,22.23
2018-12-17T07:14:38.090Z,19.60
2018-12-17T07:17:05.716Z,19.77
2018-12-17T07:19:33.355Z,21.90
2018-12-17T07:22:00.907Z,21.17
2018-12-17T07:24:28.496Z,18.33
2018-12-17T07:26:56.205Z,17.83
2018-12-17T07:29:23.782Z,20.07
2018-12-17T07:31:51.806Z,19.40
2018-12-17T07:34:20.079Z,17.70
2018-12-17T07:36:47.642Z,16.30
2018-12-17T07:39:15.983Z,19.93
2018-12-17T07:41:43.775Z,16.80
2018-12-17T07:44:11.300Z,21.97
2018-12-17T07:46:39.040Z,16.53
2018-12-17T07:49:06.654Z,20.20
2018-12-17T07:51:34.168Z,18.50
2018-12-17T07:54:01.744Z,21.07
2018-12-17T07:56:29.339Z,18.23
2018-12-17T07:58:56.909Z,19.47
2018-12-17T08:01:24.579Z,18.57
2018-12-17T08:03:52.419Z,18.20
2018-12-17T08:06:19.967Z,17.93
2018-12-17T08:08:47.727Z,16.57
2018-12-17T08:11:15.471Z,20.77
2018-12-17T08:13:43.212Z,21.27
2018-12-17T08:16:10.910Z,25.60
2018-12-17T08:18:38.463Z,18.87
2018-12-17T08:21:05.982Z,16.27
2018-12-17T08:23:33.519Z,16.33
2018-12-17T08:26:01.246Z,16.90
2018-12-17T08:28:29.049Z,23.97
2018-12-17T08:30:56.661Z,22.83
2018-12-17T08:33:24.229Z,19.03
2018-12-17T08:35:51.814Z,19.30
2018-12-17T08:38:19.350Z,22.47
2018-12-17T08:40:46.906Z,17.57
2018-12-17T08:43:14.882Z,26.33
2018-12-17T08:45:42.529Z,21.03
2018-12-17T08:48:10.066Z,18.23
2018-12-17T08:50:37.661Z,17.70
2018-12-17T08:53:05.448Z,18.53
2018-12-17T08:55:33.175Z,17.82
2018-12-17T08:58:00.992Z,15.60
2018-12-17T09:00:28.546Z,18.87
2018-12-17T09:02:56.311Z,19.60
2018-12-17T09:05:23.829Z,27.63
2018-12-17T09:07:51.367Z,26.30
2018-12-17T09:10:19.088Z,20.60
2018-12-17T09:12:46.642Z,15.00
2018-12-17T09:15:14.177Z,22.67
2018-12-17T09:17:41.809Z,17.03
2018-12-17T09:20:09.470Z,21.27
2018-12-17T09:22:37.024Z,16.50
2018-12-17T09:25:05.387Z,17.50
2018-12-17T09:27:32.972Z,19.67
2018-12-17T09:30:00.505Z,18.87
2018-12-17T09:32:28.080Z,17.70
2018-12-17T09:34:55.726Z,18.43
2018-12-17T09:37:23.427Z,21.60
2018-12-17T09:39:51.291Z,22.47
2018-12-17T09:42:19.078Z,20.17
2018-12-17T09:44:46.953Z,17.67
2018-12-17T09:47:14.832Z,18.57
2018-12-17T09:49:42.395Z,18.50
2018-12-17T09:52:09.954Z,16.10
2018-12-17T09:54:37.822Z,20.00
2018-12-17T09:57:05.818Z,17.17
2018-12-17T09:59:33.378Z,15.50
2018-12-17T10:02:01.198Z,16.27
2018-12-17T10:04:28.902Z,11.03
2018-12-17T10:06:56.626Z,14.50
2018-12-17T10:09:24.417Z,8.37
2018-12-17T10:11:52.115Z,10.50
2018-12-17T10:14:19.941Z,11.57
2018-12-17T10:16:47.740Z,8.47
2018-12-17T10:19:15.450Z,7.80
2018-12-17T10:21:43.123Z,9.83
2018-12-17T10:24:10.710Z,7.57
2018-12-17T10:26:42.039Z,4.30
2018-12-17T10:29:09.636Z,2.07
2018-12-17T10:31:37.182Z,2.73
2018-12-17T10:34:04.766Z,3.80
2018-12-17T10:36:32.772Z,1.13
2018-12-17T10:39:00.347Z,2.57
2018-12-17T10:41:27.891Z,2.83
2018-12-17T10:43:55.482Z,3.67
2018-12-17T10:46:23.230Z,2.90
2018-12-17T10:48:50.905Z,6.00
2018-12-17T10:51:18.632Z,3.33
2018-12-17T10:53:46.171Z,3.93
2018-12-17T10:56:13.706Z,2.70
2018-12-17T10:58:41.296Z,4.90
2018-12-17T11:01:14.646Z,4.07
2018-12-17T11:03:43.172Z,1.42
2018-12-17T11:06:11.658Z,1.53
2018-12-17T11:08:39.255Z,2.67
2018-12-17T11:11:06.785Z,2.00
2018-12-17T11:13:34.466Z,1.73
2018-12-17T11:16:02.224Z,2.10
2018-12-17T11:18:29.801Z,2.23
2018-12-17T11:20:57.504Z,1.20
2018-12-17T11:23:25.126Z,3.20
2018-12-17T11:25:52.760Z,2.37
2018-12-17T11:28:20.471Z,1.30
2018-12-17T11:30:48.174Z,3.63
2018-12-17T11:33:16.017Z,2.60
2018-12-17T11:35:43.884Z,3.00
2018-12-17T11:38:11.679Z,3.07
2018-12-17T11:40:39.380Z,3.03
2018-12-17T11:43:07.062Z,1.73
2018-12-17T11:45:34.811Z,3.83
2018-12-17T11:48:02.397Z,5.30
2018-12-17T11:50:29.996Z,7.13
2018-12-17T11:52:57.522Z,1.80
2018-12-17T11:55:25.045Z,3.40
2018-12-17T11:58:09.098Z,2.20
2018-12-17T12:00:36.882Z,5.33
2018-12-17T12:03:04.632Z,3.50
2018-12-17T12:05:32.365Z,5.03
2018-12-17T12:07:59.941Z,6.03
2018-12-17T12:10:27.500Z,4.97
2018-12-17T12:12:55.273Z,3.63
2018-12-17T12:15:22.882Z,3.80
2018-12-17T12:17:50.459Z,3.93
2018-12-17T12:20:18.217Z,8.93
2018-12-17T12:22:45.741Z,4.13
2018-12-17T12:25:13.596Z,2.67
2018-12-17T12:27:41.197Z,5.40
2018-12-17T12:30:09.858Z,5.53
2018-12-17T12:32:37.435Z,5.80
2018-12-17T12:35:07.131Z,4.67
2018-12-17T12:37:34.821Z,4.67
2018-12-17T12:40:02.501Z,3.40
2018-12-17T12:42:30.063Z,4.77
2018-12-17T12:44:57.816Z,10.00
2018-12-17T12:47:25.375Z,6.50
2018-12-17T12:49:53.222Z,3.57
2018-12-17T12:52:20.899Z,8.00
2018-12-17T12:54:48.557Z,7.63
2018-12-17T12:57:16.285Z,5.17
2018-12-17T12:59:43.815Z,9.67
2018-12-17T13:02:11.370Z,4.60
2018-12-17T13:04:39.089Z,6.03
2018-12-17T13:07:06.690Z,5.20
2018-12-17T13:09:34.442Z,10.27
2018-12-17T13:12:02.022Z,6.13
2018-12-17T13:14:30.043Z,5.03
2018-12-17T13:16:57.568Z,2.90
2018-12-17T13:19:25.266Z,6.27
2018-12-17T13:21:53.517Z,6.43
2018-12-17T13:24:21.043Z,5.97
2018-12-17T13:26:48.601Z,5.43
2018-12-17T13:29:17.077Z,6.13
2018-12-17T13:31:44.786Z,4.20
2018-12-17T13:34:12.306Z,6.10
2018-12-17T13:36:40.093Z,5.50
2018-12-17T13:39:07.683Z,5.60
2018-12-17T13:41:35.502Z,5.17
2018-12-17T13:44:03.042Z,8.33
2018-12-17T13:46:30.583Z,7.57
2018-12-17T13:48:58.332Z,7.07
2018-12-17T13:51:31.373Z,6.83
2018-12-17T13:53:59.417Z,5.17
2018-12-17T13:56:27.382Z,3.47
2018-12-17T13:58:55.330Z,5.53
2018-12-17T14:01:22.862Z,7.53
2018-12-17T14:03:50.454Z,5.07
2018-12-17T14:06:17.960Z,4.90
2018-12-17T14:08:45.522Z,5.27
2018-12-17T14:11:13.056Z,7.77
2018-12-17T14:13:40.620Z,5.63
2018-12-17T14:16:14.141Z,6.23
2018-12-17T14:18:47.302Z,6.70
2018-12-17T14:21:20.376Z,7.23
2018-12-17T14:23:48.278Z,7.97
2018-12-17T14:26:16.002Z,6.00
2018-12-17T14:28:43.558Z,6.67
2018-12-17T14:31:11.111Z,6.13
2018-12-17T14:33:38.802Z,6.97
2018-12-17T14:36:09.091Z,8.90
2018-12-17T14:38:36.961Z,8.73
2018-12-17T14:41:04.471Z,8.60
2018-12-17T14:43:32.112Z,10.03
2018-12-17T14:45:59.656Z,7.00
2018-12-17T14:48:27.226Z,9.37
2018-12-17T14:50:54.763Z,6.20
2018-12-17T14:53:22.619Z,6.37
2018-12-17T14:55:50.341Z,5.93
2018-12-17T14:58:17.859Z,7.37
2018-12-17T15:00:45.759Z,8.17
2018-12-17T15:03:13.503Z,10.00
2018-12-17T15:05:41.070Z,11.13
2018-12-17T15:08:08.638Z,8.47
2018-12-17T15:10:36.654Z,12.40
2018-12-17T15:13:04.209Z,9.90
2018-12-17T15:15:31.778Z,13.00
2018-12-17T15:17:59.354Z,7.97
2018-12-17T15:20:26.947Z,7.03
2018-12-17T15:22:55.069Z,13.07
2018-12-17T15:25:22.723Z,9.40
2018-12-17T15:27:50.455Z,10.73
2018-12-17T15:30:18.209Z,10.57
2018-12-17T15:32:45.926Z,6.60
2018-12-17T15:35:13.809Z,11.53
2018-12-17T15:37:41.364Z,6.93
2018-12-17T15:40:08.959Z,6.77
2018-12-17T15:42:40.781Z,9.00
2018-12-17T15:45:06.463Z,9.53
2018-12-17T15:47:34.133Z,11.93
2018-12-17T15:50:01.698Z,7.63
2018-12-17T15:52:29.266Z,8.80
2018-12-17T15:54:56.813Z,8.80
2018-12-17T15:57:24.680Z,7.03
2018-12-17T15:59:52.576Z,6.87
2018-12-17T16:02:20.167Z,4.47
2018-12-17T16:04:47.945Z,6.37
2018-12-17T16:07:15.519Z,5.13
2018-12-17T16:09:43.066Z,7.10
2018-12-17T16:12:11.262Z,8.80
2018-12-17T16:14:39.365Z,12.37
2018-12-17T16:17:07.099Z,10.77
2018-12-17T16:19:34.870Z,15.33
2018-12-17T16:22:02.505Z,9.97
2018-12-17T16:24:30.252Z,8.60
2018-12-17T16:26:57.816Z,9.47
2018-12-17T16:29:25.402Z,10.17
2018-12-17T16:31:57.211Z,10.97
2018-12-17T16:34:22.863Z,10.70
2018-12-17T16:36:51.424Z,10.80
2018-12-17T16:39:19.011Z,9.70
2018-12-17T16:41:46.581Z,8.93
2018-12-17T16:44:14.327Z,15.87
2018-12-17T16:46:41.896Z,16.63
2018-12-17T16:49:09.456Z,12.50
2018-12-17T16:51:37.239Z,12.57
2018-12-17T16:54:04.907Z,15.87
2018-12-17T16:56:32.623Z,13.93
2018-12-17T16:59:00.324Z,10.93
2018-12-17T17:01:28.241Z,13.23
2018-12-17T17:03:55.893Z,10.97
2018-12-17T17:06:23.433Z,11.53
2018-12-17T17:08:51.217Z,9.83
2018-12-17T17:11:18.852Z,17.93
2018-12-17T17:13:46.462Z,20.97
2018-12-17T17:16:14.219Z,24.80
2018-12-17T17:18:42.067Z,24.97
2018-12-17T17:21:09.633Z,29.90
2018-12-17T17:23:37.248Z,19.83
2018-12-17T17:26:04.818Z,21.13
2018-12-17T17:28:32.559Z,24.53
2018-12-17T17:31:00.403Z,22.63
2018-12-17T17:33:27.975Z,21.10
2018-12-17T17:35:55.618Z,20.93
2018-12-17T17:38:23.448Z,13.20
2018-12-17T17:40:51.296Z,14.53
2018-12-17T17:43:19.111Z,12.00
2018-12-17T17:45:46.842Z,12.30
2018-12-17T17:48:14.501Z,20.37
2018-12-17T17:50:42.259Z,19.07
2018-12-17T17:53:09.819Z,23.47
2018-12-17T17:55:37.902Z,23.13
2018-12-17T17:58:05.491Z,12.23
2018-12-17T18:00:33.378Z,12.07
2018-12-17T18:03:01.123Z,12.30
2018-12-17T18:05:28.868Z,82.37
2018-12-17T18:07:56.622Z,110.77
2018-12-17T18:10:24.222Z,35.60
2018-12-17T18:12:51.754Z,18.33
2018-12-17T18:15:19.446Z,17.60
2018-12-17T18:17:47.002Z,20.23
2018-12-17T18:20:14.663Z,21.67
2018-12-17T18:22:42.636Z,22.93
2018-12-17T18:25:10.184Z,34.90
2018-12-17T18:27:37.779Z,28.60
2018-12-17T18:30:06.173Z,29.30
2018-12-17T18:32:33.797Z,38.85
2018-12-17T18:35:01.358Z,39.20
2018-12-17T18:37:29.188Z,35.80
2018-12-17T18:39:56.774Z,26.37
2018-12-17T18:42:24.359Z,24.33
2018-12-17T18:44:51.981Z,20.60
2018-12-17T18:47:25.806Z,23.23
2018-12-17T18:49:49.370Z,18.07
2018-12-17T18:52:16.961Z,17.83
2018-12-17T18:54:44.916Z,16.57
2018-12-17T18:57:12.454Z,15.03
2018-12-17T18:59:40.018Z,11.70
2018-12-17T19:02:07.797Z,14.27
2018-12-17T19:04:35.643Z,18.10
2018-12-17T19:07:03.858Z,22.40
2018-12-17T19:09:31.578Z,22.17
2018-12-17T19:11:59.124Z,26.30
2018-12-17T19:14:27.043Z,33.33
2018-12-17T19:16:54.940Z,34.33
2018-12-17T19:19:22.550Z,37.73
2018-12-17T19:21:50.102Z,28.63
2018-12-17T19:24:17.693Z,23.13
2018-12-17T19:26:45.383Z,16.53
2018-12-17T19:29:13.188Z,14.50
2018-12-17T19:31:40.894Z,14.37
2018-12-17T19:34:08.469Z,19.37
2018-12-17T19:36:36.016Z,18.73
2018-12-17T19:39:05.697Z,26.20
2018-12-17T19:41:33.412Z,26.77
2018-12-17T19:44:01.133Z,30.33
2018-12-17T19:46:28.682Z,29.93
2018-12-17T19:48:56.214Z,27.83
2018-12-17T19:51:23.987Z,26.17
2018-12-17T19:53:51.742Z,25.57
2018-12-17T19:56:19.438Z,75.07
2018-12-17T19:58:47.158Z,58.83
2018-12-17T20:01:14.809Z,51.37
2018-12-17T20:03:42.534Z,53.90
2018-12-17T20:06:10.060Z,33.53
2018-12-17T20:08:37.717Z,32.87
2018-12-17T20:11:05.374Z,37.30
2018-12-17T20:13:33.193Z,29.43
2018-12-17T20:16:00.731Z,28.07
2018-12-17T20:18:28.430Z,30.80
2018-12-17T20:20:56.025Z,34.70
2018-12-17T20:23:23.799Z,30.53
2018-12-17T20:25:51.357Z,36.07
2018-12-17T20:28:19.139Z,39.37
2018-12-17T20:30:47.014Z,35.33
2018-12-17T20:33:14.667Z,35.00
2018-12-17T20:35:42.684Z,34.77
2018-12-17T20:38:10.354Z,39.73
2018-12-17T20:40:38.163Z,36.27
2018-12-17T20:43:05.782Z,34.83
2018-12-17T20:45:33.504Z,35.77
2018-12-17T20:48:01.106Z,37.27
2018-12-17T20:50:28.687Z,37.47
2018-12-17T20:52:56.324Z,37.70
2018-12-17T20:55:30.394Z,34.93
2018-12-17T20:57:53.534Z,39.20
2018-12-17T21:00:21.300Z,40.27
2018-12-17T21:02:48.893Z,40.07
2018-12-17T21:05:16.813Z,40.43
2018-12-17T21:07:44.644Z,43.10
2018-12-17T21:10:12.370Z,43.43
2018-12-17T21:12:39.882Z,42.17
2018-12-17T21:15:07.770Z,42.43
2018-12-17T21:17:35.459Z,49.50
2018-12-17T21:20:03.409Z,45.00
2018-12-17T21:22:31.029Z,49.27
2018-12-17T21:24:58.821Z,44.47
2018-12-17T21:27:26.462Z,43.73
2018-12-17T21:29:54.102Z,45.30
2018-12-17T21:32:21.824Z,40.43
2018-12-17T21:34:49.689Z,40.73
2018-12-17T21:37:17.403Z,38.33
2018-12-17T21:39:45.423Z,37.60
2018-12-17T21:42:12.939Z,38.37
2018-12-17T21:44:40.664Z,46.57
2018-12-17T21:47:08.189Z,40.77
2018-12-17T21:49:35.763Z,35.27
2018-12-17T21:52:03.333Z,36.00
2018-12-17T21:54:30.906Z,37.97
2018-12-17T21:56:58.544Z,40.60
2018-12-17T21:59:26.309Z,34.80
2018-12-17T22:01:54.142Z,32.13
2018-12-17T22:04:21.879Z,38.57
2018-12-17T22:06:49.461Z,42.00
2018-12-17T22:09:17.388Z,40.83
2018-12-17T22:11:45.189Z,33.17
2018-12-17T22:14:12.989Z,41.13
2018-12-17T22:16:40.675Z,25.47
2018-12-17T22:19:08.488Z,27.97
2018-12-17T22:21:36.389Z,25.07
2018-12-17T22:24:04.080Z,25.53
2018-12-17T22:26:31.833Z,26.33
2018-12-17T22:28:59.526Z,30.20
2018-12-17T22:31:27.234Z,27.80
2018-12-17T22:33:54.861Z,24.70
2018-12-17T22:36:22.418Z,26.90
2018-12-17T22:38:49.981Z,29.33
2018-12-17T22:41:17.822Z,29.17
2018-12-17T22:43:45.541Z,29.43
2018-12-17T22:46:13.122Z,31.67
2018-12-17T22:48:40.712Z,30.70
2018-12-17T22:51:08.355Z,21.27
2018-12-17T22:53:35.916Z,25.07
2018-12-17T22:56:03.445Z,25.40
2018-12-17T22:58:31.008Z,23.73
2018-12-17T23:00:58.980Z,25.77
2018-12-17T23:03:26.659Z,24.63
2018-12-17T23:05:54.206Z,24.63
2018-12-17T23:08:21.737Z,28.40
2018-12-17T23:11:01.122Z,25.33
2018-12-17T23:13:40.606Z,23.63
2018-12-17T23:16:20.051Z,24.03
2018-12-17T23:18:47.246Z,29.53
2018-12-17T23:21:15.071Z,20.97
2018-12-17T23:23:42.790Z,26.83
2018-12-17T23:26:10.496Z,23.10
2018-12-17T23:28:38.015Z,25.23
2018-12-17T23:31:05.580Z,21.03
2018-12-17T23:33:33.311Z,16.70
2018-12-17T23:36:01.046Z,18.03
2018-12-17T23:38:28.672Z,17.67
2018-12-17T23:40:56.281Z,20.70
2018-12-17T23:43:23.799Z,26.33
2018-12-17T23:45:51.450Z,19.13
2018-12-17T23:48:19.030Z,17.10
2018-12-17T23:50:46.812Z,19.30
2018-12-17T23:53:14.348Z,17.30
2018-12-17T23:55:41.911Z,18.87
2018-12-17T23:58:09.430Z,17.50
